createdAt,value
2023-03-02T00:02:04.609Z,101286.95
2023-03-02T00:04:42.328Z,101286.99
2023-03-02T00:07:12.653Z,101291.20
2023-03-02T00:09:40.716Z,101297.48
2023-03-02T00:12:08.383Z,101295.80
2023-03-02T00:14:35.308Z,101297.85
2023-03-02T00:17:03.013Z,101300.05
2023-03-02T00:19:30.135Z,101298.26
2023-03-02T00:21:57.083Z,101297.10
2023-03-02T00:24:24.231Z,101296.45
2023-03-02T00:26:51.405Z,101294.67
2023-03-02T00:29:18.323Z,101295.42
2023-03-02T00:31:45.439Z,101298.73
2023-03-02T00:34:12.535Z,101295.55
2023-03-02T00:36:40.048Z,101296.94
2023-03-02T00:39:08.148Z,101306.56
2023-03-02T00:41:35.206Z,101300.84
2023-03-02T00:44:02.456Z,101297.74
2023-03-02T00:46:29.474Z,101298.79
2023-03-02T00:48:56.442Z,101295.41
2023-03-02T00:51:23.488Z,101288.16
2023-03-02T00:53:51.556Z,101287.91
2023-03-02T00:56:18.659Z,101294.30
2023-03-02T00:58:47.405Z,101293.21
2023-03-02T01:01:15.895Z,101287.88
2023-03-02T01:03:46.403Z,101285.17
2023-03-02T01:06:16.741Z,101283.95
2023-03-02T01:08:44.302Z,101274.31
2023-03-02T01:11:18.795Z,101271.97
2023-03-02T01:13:46.931Z,101270.10
2023-03-02T01:16:14.721Z,101266.16
2023-03-02T01:18:42.418Z,101264.20
2023-03-02T01:21:12.939Z,101266.72
2023-03-02T01:23:40.296Z,101262.36
2023-03-02T01:26:08.072Z,101257.19
2023-03-02T01:28:35.006Z,101252.94
2023-03-02T01:31:03.440Z,101251.66
2023-03-02T01:33:31.684Z,101247.89
2023-03-02T01:35:58.816Z,101246.34
2023-03-02T01:38:26.283Z,101244.08
2023-03-02T01:40:53.534Z,101241.77
2023-03-02T01:43:20.563Z,101238.45
2023-03-02T01:45:55.907Z,101238.08
2023-03-02T01:48:47.296Z,101234.20
2023-03-02T01:51:20.634Z,101235.88
2023-03-02T01:53:55.487Z,101231.91
2023-03-02T01:56:30.655Z,101229.31
2023-03-02T01:59:02.691Z,101223.98
2023-03-02T02:01:32.471Z,101224.02
2023-03-02T02:03:59.592Z,101224.28
2023-03-02T02:06:38.492Z,101216.50
2023-03-02T02:09:09.483Z,101210.48
2023-03-02T02:11:36.993Z,101209.63
2023-03-02T02:14:04.765Z,101207.98
2023-03-02T02:16:34.834Z,101203.44
2023-03-02T02:19:04.997Z,101202.23
2023-03-02T02:21:32.040Z,101200.84
2023-03-02T02:24:08.653Z,101198.13
2023-03-02T02:26:51.799Z,101196.39
2023-03-02T02:29:28.147Z,101195.27
2023-03-02T02:32:00.288Z,101191.47
2023-03-02T02:34:39.857Z,101192.10
2023-03-02T02:37:15.629Z,101192.11
2023-03-02T02:39:48.531Z,101193.84
2023-03-02T02:42:25.673Z,101193.98
2023-03-02T02:44:57.959Z,101192.34
2023-03-02T02:47:25.256Z,101189.02
2023-03-02T02:49:55.137Z,101187.48
2023-03-02T02:52:27.949Z,101187.37
2023-03-02T02:54:57.404Z,101187.15
2023-03-02T02:57:27.899Z,101184.56
2023-03-02T02:59:59.590Z,101182.02
2023-03-02T03:02:31.749Z,101183.18
2023-03-02T03:05:04.523Z,101186.13
2023-03-02T03:07:34.301Z,101191.84
2023-03-02T03:10:14.134Z,101192.20
2023-03-02T03:12:42.768Z,101188.56
2023-03-02T03:15:10.546Z,101194.89
2023-03-02T03:17:37.889Z,101193.67
2023-03-02T03:20:09.501Z,101190.29
2023-03-02T03:22:40.073Z,101192.84
2023-03-02T03:25:08.864Z,101190.71
2023-03-02T03:27:36.108Z,101188.66
2023-03-02T03:30:04.388Z,101189.96
2023-03-02T03:32:34.614Z,101190.42
2023-03-02T03:35:02.746Z,101191.11
2023-03-02T03:37:31.989Z,101189.36
2023-03-02T03:39:59.034Z,101192.58
2023-03-02T03:42:27.299Z,101190.15
2023-03-02T03:44:54.650Z,101191.79
2023-03-02T03:47:21.723Z,101195.85
2023-03-02T03:49:49.774Z,101200.97
2023-03-02T03:52:17.232Z,101203.03
2023-03-02T03:54:44.791Z,101204.03
2023-03-02T03:57:12.392Z,101206.63
2023-03-02T03:59:39.700Z,101201.98
2023-03-02T04:02:06.692Z,101204.30
2023-03-02T04:04:40.123Z,101204.92
2023-03-02T04:07:11.189Z,101206.23
2023-03-02T04:09:39.515Z,101208.98
2023-03-02T04:12:10.010Z,101209.39
2023-03-02T04:14:38.867Z,101214.63
2023-03-02T04:17:07.271Z,101214.49
2023-03-02T04:19:37.622Z,101222.32
2023-03-02T04:22:05.041Z,101222.25
2023-03-02T04:24:33.207Z,101227.50
2023-03-02T04:27:02.613Z,101231.16
2023-03-02T04:29:32.471Z,101230.92
2023-03-02T04:32:00.957Z,101230.88
2023-03-02T04:34:28.576Z,101236.67
2023-03-02T04:36:56.400Z,101237.51
2023-03-02T04:39:23.779Z,101235.67
2023-03-02T04:41:52.389Z,101235.27
2023-03-02T04:44:20.525Z,101236.40
2023-03-02T04:46:49.597Z,101245.04
2023-03-02T04:49:18.243Z,101243.00
2023-03-02T04:51:47.002Z,101248.91
2023-03-02T04:54:21.040Z,101248.75
2023-03-02T04:56:48.909Z,101248.73
2023-03-02T04:59:17.077Z,101251.27
2023-03-02T05:01:45.008Z,101253.31
2023-03-02T05:04:13.036Z,101252.27
2023-03-02T05:06:40.165Z,101252.69
2023-03-02T05:09:07.728Z,101254.05
2023-03-02T05:11:35.230Z,101254.66
2023-03-02T05:14:04.773Z,101255.28
2023-03-02T05:16:34.641Z,101260.52
2023-03-02T05:19:03.904Z,101264.29
2023-03-02T05:21:31.177Z,101266.63
2023-03-02T05:23:58.703Z,101264.21
2023-03-02T05:26:25.860Z,101266.16
2023-03-02T05:28:54.118Z,101264.83
2023-03-02T05:31:27.444Z,101262.59
2023-03-02T05:33:55.026Z,101262.09
2023-03-02T05:36:23.307Z,101264.99
2023-03-02T05:38:50.567Z,101267.00
2023-03-02T05:41:18.177Z,101265.21
2023-03-02T05:43:45.130Z,101268.68
2023-03-02T05:46:12.028Z,101273.17
2023-03-02T05:48:38.922Z,101276.71
2023-03-02T05:51:06.245Z,101277.42
2023-03-02T05:53:33.091Z,101279.48
2023-03-02T05:55:59.963Z,101280.09
2023-03-02T05:58:26.893Z,101285.23
2023-03-02T06:00:53.841Z,101287.23
2023-03-02T06:03:20.852Z,101288.11
2023-03-02T06:05:56.737Z,101287.17
2023-03-02T06:08:23.617Z,101290.24
2023-03-02T06:10:51.136Z,101291.28
2023-03-02T06:13:18.090Z,101294.54
2023-03-02T06:15:46.031Z,101297.64
2023-03-02T06:18:14.424Z,101299.88
2023-03-02T06:20:42.292Z,101302.98
2023-03-02T06:23:09.953Z,101304.73
2023-03-02T06:25:41.757Z,101306.02
2023-03-02T06:28:09.485Z,101308.46
2023-03-02T06:30:36.445Z,101308.14
2023-03-02T06:33:03.870Z,101306.80
2023-03-02T06:35:31.551Z,101311.16
2023-03-02T06:37:58.808Z,101311.11
2023-03-02T06:40:25.995Z,101311.46
2023-03-02T06:42:53.294Z,101312.82
2023-03-02T06:45:20.175Z,101315.92
2023-03-02T06:47:47.075Z,101320.70
2023-03-02T06:50:13.889Z,101326.95
2023-03-02T06:52:41.043Z,101331.28
2023-03-02T06:55:09.020Z,101338.27
2023-03-02T06:57:36.099Z,101341.51
2023-03-02T07:00:19.145Z,101338.08
2023-03-02T07:02:47.174Z,101340.22
2023-03-02T07:05:14.210Z,101338.63
2023-03-02T07:07:41.438Z,101342.66
2023-03-02T07:10:11.152Z,101345.31
2023-03-02T07:12:38.461Z,101344.11
2023-03-02T07:15:11.205Z,101347.54
2023-03-02T07:17:39.400Z,101352.40
2023-03-02T07:20:08.706Z,101354.91
2023-03-02T07:22:36.261Z,101357.48
2023-03-02T07:25:03.521Z,101361.88
2023-03-02T07:27:30.866Z,101360.31
2023-03-02T07:29:57.850Z,101365.05
2023-03-02T07:32:25.093Z,101364.74
2023-03-02T07:34:52.247Z,101365.55
2023-03-02T07:37:19.267Z,101367.18
2023-03-02T07:39:49.487Z,101368.16
2023-03-02T07:42:17.563Z,101366.65
2023-03-02T07:44:46.760Z,101366.33
2023-03-02T07:47:14.110Z,101367.00
2023-03-02T07:49:41.115Z,101362.38
2023-03-02T07:52:08.141Z,101362.38
2023-03-02T07:54:35.147Z,101360.56
2023-03-02T07:57:02.511Z,101359.29
2023-03-02T07:59:30.177Z,101355.53
2023-03-02T08:01:59.002Z,101353.76
2023-03-02T08:04:26.604Z,101357.86
2023-03-02T08:06:53.664Z,101359.38
2023-03-02T08:09:20.712Z,101358.46
2023-03-02T08:11:48.165Z,101357.59
2023-03-02T08:14:15.319Z,101358.89
2023-03-02T08:16:42.434Z,101358.91
2023-03-02T08:19:09.618Z,101359.11
2023-03-02T08:21:36.758Z,101363.52
2023-03-02T08:24:04.354Z,101364.14
2023-03-02T08:26:31.361Z,101364.19
2023-03-02T08:28:58.923Z,101367.90
2023-03-02T08:31:26.367Z,101364.41
2023-03-02T08:33:53.531Z,101366.24
2023-03-02T08:36:21.143Z,101369.55
2023-03-02T08:38:49.631Z,101372.79
2023-03-02T08:41:20.202Z,101376.79
2023-03-02T08:43:48.585Z,101383.52
2023-03-02T08:46:18.312Z,101383.86
2023-03-02T08:48:45.653Z,101386.83
2023-03-02T08:51:18.715Z,101391.29
2023-03-02T08:53:50.537Z,101389.83
2023-03-02T08:56:23.625Z,101394.20
2023-03-02T08:58:51.815Z,101392.82
2023-03-02T09:01:22.189Z,101393.98
2023-03-02T09:03:49.114Z,101393.06
2023-03-02T09:06:16.333Z,101393.39
2023-03-02T09:08:43.734Z,101390.55
2023-03-02T09:11:10.891Z,101388.14
2023-03-02T09:13:38.548Z,101387.72
2023-03-02T09:16:07.492Z,101385.47
2023-03-02T09:18:35.740Z,101388.91
2023-03-02T09:21:03.061Z,101391.27
2023-03-02T09:23:30.731Z,101392.21
2023-03-02T09:25:57.646Z,101393.30
2023-03-02T09:28:24.664Z,101390.80
2023-03-02T09:30:58.346Z,101392.34
2023-03-02T09:33:25.520Z,101389.17
2023-03-02T09:35:52.778Z,101390.79
2023-03-02T09:38:20.076Z,101388.70
2023-03-02T09:40:50.297Z,101394.09
2023-03-02T09:43:46.330Z,101397.49
2023-03-02T09:46:34.166Z,101394.46
2023-03-02T09:49:39.096Z,101400.10
2023-03-02T09:52:31.351Z,101395.33
2023-03-02T09:55:27.675Z,101392.59
2023-03-02T09:57:56.172Z,101387.05
2023-03-02T10:00:37.503Z,101380.63
2023-03-02T10:03:17.517Z,101385.27
2023-03-02T10:05:55.523Z,101389.38
2023-03-02T10:08:23.612Z,101388.84
2023-03-02T10:11:02.980Z,101388.02
2023-03-02T10:13:47.768Z,101389.09
2023-03-02T10:16:17.780Z,101390.23
2023-03-02T10:19:15.497Z,101393.11
2023-03-02T10:21:58.140Z,101389.71
2023-03-02T10:25:02.676Z,101389.54
2023-03-02T10:27:39.880Z,101386.96
2023-03-02T10:30:15.990Z,101388.75
2023-03-02T10:32:47.902Z,101387.73
2023-03-02T10:35:23.884Z,101381.09
2023-03-02T10:38:12.062Z,101372.95
2023-03-02T10:40:39.723Z,101373.36
2023-03-02T10:43:11.914Z,101368.46
2023-03-02T10:45:38.950Z,101365.52
2023-03-02T10:48:11.391Z,101363.73
2023-03-02T10:50:38.735Z,101367.41
2023-03-02T10:53:19.024Z,101365.88
2023-03-02T10:55:51.827Z,101363.98
2023-03-02T10:58:25.522Z,101362.61
2023-03-02T11:01:01.865Z,101360.48
2023-03-02T11:03:30.059Z,101359.33
2023-03-02T11:06:00.557Z,101357.95
2023-03-02T11:08:28.521Z,101356.11
2023-03-02T11:10:59.992Z,101355.34
2023-03-02T11:13:37.929Z,101353.54
2023-03-02T11:16:24.227Z,101353.38
2023-03-02T11:19:03.254Z,101354.11
2023-03-02T11:21:44.378Z,101351.58
2023-03-02T11:24:17.090Z,101351.63
2023-03-02T11:26:55.233Z,101351.38
2023-03-02T11:30:04.035Z,101349.59
2023-03-02T11:33:08.691Z,101343.55
2023-03-02T11:35:55.576Z,101346.05
2023-03-02T11:38:29.551Z,101346.16
2023-03-02T11:41:00.426Z,101340.97
2023-03-02T11:43:27.516Z,101336.37
2023-03-02T11:46:10.894Z,101334.80
2023-03-02T11:48:45.175Z,101329.51
2023-03-02T11:51:15.004Z,101324.39
2023-03-02T11:53:44.161Z,101317.30
2023-03-02T11:56:11.528Z,101323.94
2023-03-02T11:58:39.496Z,101321.17
2023-03-02T12:01:11.361Z,101322.03
2023-03-02T12:03:40.866Z,101322.25
2023-03-02T12:06:25.324Z,101313.17
2023-03-02T12:08:55.314Z,101311.60
2023-03-02T12:11:22.809Z,101311.01
2023-03-02T12:13:49.644Z,101305.56
2023-03-02T12:16:36.734Z,101303.77
2023-03-02T12:19:12.928Z,101301.17
2023-03-02T12:21:56.206Z,101301.95
2023-03-02T12:24:29.036Z,101298.66
2023-03-02T12:27:25.879Z,101295.40
2023-03-02T12:30:08.359Z,101297.55
2023-03-02T12:32:35.990Z,101294.44
2023-03-02T12:35:08.878Z,101294.17
2023-03-02T12:37:46.424Z,101289.19
2023-03-02T12:40:40.675Z,101288.83
2023-03-02T12:43:32.904Z,101292.07
2023-03-02T12:46:18.075Z,101291.40
2023-03-02T12:49:01.785Z,101292.51
2023-03-02T12:51:52.122Z,101291.17
2023-03-02T12:54:22.591Z,101283.70
2023-03-02T12:56:51.018Z,101281.21
2023-03-02T12:59:27.264Z,101276.90
2023-03-02T13:02:24.460Z,101272.86
2023-03-02T13:05:03.874Z,101272.86
2023-03-02T13:07:38.405Z,101273.43
2023-03-02T13:10:31.494Z,101270.73
2023-03-02T13:13:00.374Z,101272.03
2023-03-02T13:15:27.690Z,101273.20
2023-03-02T13:17:57.870Z,101266.17
2023-03-02T13:20:28.555Z,101268.23
2023-03-02T13:22:56.620Z,101262.96
2023-03-02T13:25:27.666Z,101261.21
2023-03-02T13:27:57.263Z,101255.97
2023-03-02T13:30:32.750Z,101251.95
2023-03-02T13:33:04.237Z,101250.26
2023-03-02T13:35:34.011Z,101249.08
2023-03-02T13:38:14.377Z,101250.89
2023-03-02T13:40:46.913Z,101252.25
2023-03-02T13:43:40.695Z,101253.98
2023-03-02T13:46:27.849Z,101253.43
2023-03-02T13:49:10.683Z,101258.83
2023-03-02T13:51:48.049Z,101258.20
2023-03-02T13:54:21.905Z,101253.79
2023-03-02T13:56:51.410Z,101253.12
2023-03-02T13:59:20.058Z,101255.54
2023-03-02T14:01:48.206Z,101257.14
2023-03-02T14:04:18.260Z,101262.05
2023-03-02T14:06:46.228Z,101260.11
2023-03-02T14:09:14.041Z,101256.61
2023-03-02T14:11:45.691Z,101256.77
2023-03-02T14:14:16.610Z,101257.20
2023-03-02T14:16:43.865Z,101256.61
2023-03-02T14:19:16.336Z,101254.70
2023-03-02T14:21:43.599Z,101261.03
2023-03-02T14:24:10.961Z,101257.39
2023-03-02T14:26:44.261Z,101260.88
2023-03-02T14:29:17.378Z,101256.73
2023-03-02T14:31:44.306Z,101256.80
2023-03-02T14:34:16.137Z,101258.80
2023-03-02T14:36:47.061Z,101257.98
2023-03-02T14:39:38.088Z,101259.09
2023-03-02T14:42:06.874Z,101255.59
2023-03-02T14:44:34.023Z,101254.81
2023-03-02T14:47:01.885Z,101256.23
2023-03-02T14:49:32.954Z,101258.95
2023-03-02T14:52:09.607Z,101260.73
2023-03-02T14:54:41.769Z,101258.52
2023-03-02T14:57:20.934Z,101257.60
2023-03-02T14:59:49.764Z,101260.09
2023-03-02T15:02:25.714Z,101259.08
2023-03-02T15:04:57.290Z,101256.27
2023-03-02T15:07:27.112Z,101251.31
2023-03-02T15:09:56.378Z,101251.58
2023-03-02T15:12:23.796Z,101249.61
2023-03-02T15:14:50.826Z,101247.83
2023-03-02T15:17:20.179Z,101253.00
2023-03-02T15:19:50.239Z,101256.84
2023-03-02T15:22:17.410Z,101252.20
2023-03-02T15:24:46.548Z,101248.30
2023-03-02T15:27:13.575Z,101248.68
2023-03-02T15:29:45.443Z,101246.42
2023-03-02T15:32:12.712Z,101243.95
2023-03-02T15:34:40.018Z,101240.61
2023-03-02T15:37:07.074Z,101237.41
2023-03-02T15:39:34.294Z,101238.46
2023-03-02T15:42:03.585Z,101240.42
2023-03-02T15:44:30.682Z,101244.38
2023-03-02T15:46:59.863Z,101249.35
2023-03-02T15:49:29.301Z,101251.98
2023-03-02T15:51:58.497Z,101253.95
2023-03-02T15:54:27.017Z,101253.58
2023-03-02T15:56:54.384Z,101255.56
2023-03-02T15:59:30.324Z,101259.04
2023-03-02T16:02:02.439Z,101263.75
2023-03-02T16:04:32.523Z,101261.95
2023-03-02T16:06:59.879Z,101269.72
2023-03-02T16:09:29.274Z,101272.60
2023-03-02T16:11:57.140Z,101275.83
2023-03-02T16:14:24.708Z,101276.70
2023-03-02T16:16:51.674Z,101279.86
2023-03-02T16:19:19.537Z,101280.20
2023-03-02T16:21:47.994Z,101280.41
2023-03-02T16:24:17.064Z,101285.23
2023-03-02T16:26:45.265Z,101289.70
2023-03-02T16:29:13.946Z,101288.77
2023-03-02T16:31:45.355Z,101285.23
2023-03-02T16:34:13.047Z,101288.81
2023-03-02T16:36:41.519Z,101294.59
2023-03-02T16:39:09.822Z,101296.27
2023-03-02T16:41:38.612Z,101295.64
2023-03-02T16:44:06.777Z,101296.42
2023-03-02T16:46:36.972Z,101291.48
2023-03-02T16:49:04.924Z,101291.54
2023-03-02T16:51:33.156Z,101288.38
2023-03-02T16:54:00.217Z,101292.55
2023-03-02T16:56:27.341Z,101293.90
2023-03-02T16:58:55.563Z,101298.27
2023-03-02T17:01:23.366Z,101296.10
2023-03-02T17:03:52.027Z,101297.89
2023-03-02T17:06:21.510Z,101302.11
2023-03-02T17:08:48.795Z,101302.43
2023-03-02T17:11:15.819Z,101306.88
2023-03-02T17:13:42.823Z,101309.08
2023-03-02T17:16:10.299Z,101306.60
2023-03-02T17:18:37.300Z,101307.25
2023-03-02T17:21:05.105Z,101311.45
2023-03-02T17:23:32.250Z,101309.89
2023-03-02T17:25:59.133Z,101313.66
2023-03-02T17:28:26.186Z,101316.94
2023-03-02T17:30:53.497Z,101313.92
2023-03-02T17:33:20.729Z,101317.05
2023-03-02T17:35:47.780Z,101324.81
2023-03-02T17:38:15.455Z,101325.57
2023-03-02T17:40:43.197Z,101327.13
2023-03-02T17:43:12.537Z,101327.38
2023-03-02T17:45:39.857Z,101333.80
2023-03-02T17:48:07.192Z,101335.90
2023-03-02T17:50:34.664Z,101338.01
2023-03-02T17:53:03.146Z,101335.73
2023-03-02T17:55:30.446Z,101334.52
2023-03-02T17:57:57.386Z,101332.44
2023-03-02T18:00:25.107Z,101332.94
2023-03-02T18:02:52.597Z,101338.42
2023-03-02T18:05:19.644Z,101340.38
2023-03-02T18:07:47.074Z,101343.71
2023-03-02T18:10:14.469Z,101342.41
2023-03-02T18:12:42.496Z,101342.63
2023-03-02T18:15:11.880Z,101342.86
2023-03-02T18:17:39.235Z,101345.20
2023-03-02T18:20:06.911Z,101348.23
2023-03-02T18:22:33.855Z,101348.64
2023-03-02T18:25:00.902Z,101348.48
2023-03-02T18:27:28.346Z,101351.40
2023-03-02T18:29:55.412Z,101354.09
2023-03-02T18:32:22.858Z,101356.40
2023-03-02T18:34:50.218Z,101356.26
2023-03-02T18:37:17.166Z,101359.52
2023-03-02T18:39:45.030Z,101364.73
2023-03-02T18:42:12.856Z,101368.37
2023-03-02T18:44:39.945Z,101369.16
2023-03-02T18:47:07.733Z,101374.48
2023-03-02T18:49:34.887Z,101370.46
2023-03-02T18:52:05.914Z,101375.89
2023-03-02T18:54:35.097Z,101378.42
2023-03-02T18:57:02.549Z,101379.58
2023-03-02T18:59:30.113Z,101379.22
2023-03-02T19:01:57.988Z,101382.64
2023-03-02T19:04:26.967Z,101383.08
2023-03-02T19:06:57.465Z,101384.39
2023-03-02T19:09:24.453Z,101388.25
2023-03-02T19:11:51.499Z,101384.61
2023-03-02T19:14:18.752Z,101384.66
2023-03-02T19:16:46.495Z,101383.98
2023-03-02T19:19:14.280Z,101386.66
2023-03-02T19:21:41.620Z,101390.77
2023-03-02T19:24:08.882Z,101387.73
2023-03-02T19:26:36.137Z,101382.77
2023-03-02T19:29:04.675Z,101379.45
2023-03-02T19:31:33.062Z,101380.30
2023-03-02T19:34:00.359Z,101383.10
2023-03-02T19:36:27.324Z,101386.23
2023-03-02T19:38:55.057Z,101386.46
2023-03-02T19:41:22.310Z,101386.70
2023-03-02T19:43:49.539Z,101380.10
2023-03-02T19:46:17.815Z,101382.73
2023-03-02T19:48:45.082Z,101382.78
2023-03-02T19:51:14.852Z,101384.48
2023-03-02T19:53:43.926Z,101382.11
2023-03-02T19:56:14.629Z,101382.33
2023-03-02T19:58:47.812Z,101377.61
2023-03-02T20:01:25.914Z,101373.17
2023-03-02T20:03:54.604Z,101373.49
2023-03-02T20:06:26.303Z,101369.27
2023-03-02T20:08:54.065Z,101365.19
2023-03-02T20:11:21.500Z,101368.88
2023-03-02T20:13:51.111Z,101372.21
2023-03-02T20:16:20.363Z,101376.13
2023-03-02T20:18:47.777Z,101375.17
2023-03-02T20:21:17.453Z,101369.94
2023-03-02T20:23:44.615Z,101370.30
2023-03-02T20:26:11.561Z,101371.05
2023-03-02T20:28:40.038Z,101371.75
2023-03-02T20:31:12.119Z,101370.58
2023-03-02T20:33:48.195Z,101367.19
2023-03-02T20:36:21.683Z,101366.83
2023-03-02T20:39:13.615Z,101361.02
2023-03-02T20:41:41.856Z,101360.95
2023-03-02T20:44:14.655Z,101361.57
2023-03-02T20:46:48.143Z,101366.11
2023-03-02T20:49:16.424Z,101366.44
2023-03-02T20:51:49.818Z,101362.53
2023-03-02T20:54:17.873Z,101361.44
2023-03-02T20:56:45.752Z,101360.34
2023-03-02T20:59:14.436Z,101365.36
2023-03-02T21:01:42.352Z,101366.90
2023-03-02T21:04:09.867Z,101362.92
2023-03-02T21:06:37.417Z,101360.45
2023-03-02T21:09:08.335Z,101359.05
2023-03-02T21:11:36.853Z,101364.07
2023-03-02T21:14:05.220Z,101365.96
2023-03-02T21:16:37.273Z,101366.95
2023-03-02T21:19:08.775Z,101366.63
2023-03-02T21:21:41.735Z,101368.86
2023-03-02T21:24:21.378Z,101369.68
2023-03-02T21:26:51.604Z,101371.43
2023-03-02T21:29:22.911Z,101370.95
2023-03-02T21:31:51.939Z,101369.36
2023-03-02T21:34:22.738Z,101373.49
2023-03-02T21:36:55.782Z,101374.71
2023-03-02T21:39:25.558Z,101375.24
2023-03-02T21:41:53.686Z,101376.88
2023-03-02T21:44:20.786Z,101375.96
2023-03-02T21:46:48.195Z,101379.81
2023-03-02T21:49:18.159Z,101379.20
2023-03-02T21:51:48.081Z,101374.95
2023-03-02T21:54:17.472Z,101367.05
2023-03-02T21:56:45.359Z,101360.59
2023-03-02T21:59:13.225Z,101362.85
2023-03-02T22:01:40.721Z,101365.15
2023-03-02T22:04:07.908Z,101361.64
2023-03-02T22:06:35.889Z,101358.83
2023-03-02T22:09:02.960Z,101353.58
2023-03-02T22:11:33.571Z,101350.34
2023-03-02T22:14:15.689Z,101353.88
2023-03-02T22:16:46.623Z,101352.30
2023-03-02T22:19:33.100Z,101350.03
2023-03-02T22:22:03.488Z,101346.48
2023-03-02T22:24:32.263Z,101346.94
2023-03-02T22:26:59.384Z,101342.17
2023-03-02T22:29:40.437Z,101337.54
2023-03-02T22:32:29.005Z,101333.91
2023-03-02T22:35:02.054Z,101328.77
2023-03-02T22:37:33.356Z,101326.61
2023-03-02T22:40:31.301Z,101324.29
2023-03-02T22:43:23.022Z,101324.22
2023-03-02T22:45:49.971Z,101317.18
2023-03-02T22:48:23.165Z,101313.93
2023-03-02T22:50:50.608Z,101311.11
2023-03-02T22:53:33.593Z,101310.71
2023-03-02T22:56:21.184Z,101310.38
2023-03-02T22:58:50.606Z,101307.13
2023-03-02T23:01:26.360Z,101304.23
2023-03-02T23:03:57.775Z,101303.70
2023-03-02T23:06:24.782Z,101303.23
2023-03-02T23:08:57.895Z,101298.88
2023-03-02T23:11:26.930Z,101296.31
2023-03-02T23:13:55.577Z,101293.95
2023-03-02T23:16:28.553Z,101295.66
2023-03-02T23:18:59.467Z,101285.90
2023-03-02T23:21:35.757Z,101292.21
2023-03-02T23:24:02.956Z,101290.02
2023-03-02T23:26:33.560Z,101291.50
2023-03-02T23:29:01.163Z,101292.63
2023-03-02T23:31:28.394Z,101293.53
2023-03-02T23:33:55.526Z,101290.36
2023-03-02T23:36:22.587Z,101294.96
2023-03-02T23:38:51.051Z,101292.77
2023-03-02T23:41:18.486Z,101294.67
2023-03-02T23:43:46.012Z,101293.55
2023-03-02T23:46:14.423Z,101293.02
2023-03-02T23:48:42.592Z,101289.27
2023-03-02T23:51:10.550Z,101287.98
2023-03-02T23:53:37.536Z,101284.91
2023-03-02T23:56:04.746Z,101281.69
2023-03-02T23:58:32.231Z,101279.80
